sensor_id;sensor_type;location;lat;lon;timestamp;temperature;humidity
62583;DHT22;48641;51.676;5.808;2022-12-07T00:01:12;13.00;65.00
62583;DHT22;48641;51.676;5.808;2022-12-07T00:03:39;13.00;64.90
62583;DHT22;48641;51.676;5.808;2022-12-07T00:06:07;13.00;65.90
62583;DHT22;48641;51.676;5.808;2022-12-07T00:08:34;13.00;64.90
62583;DHT22;48641;51.676;5.808;2022-12-07T00:11:11;13.00;65.10
62583;DHT22;48641;51.676;5.808;2022-12-07T00:13:37;13.00;64.80
62583;DHT22;48641;51.676;5.808;2022-12-07T00:16:06;13.00;64.90
62583;DHT22;48641;51.676;5.808;2022-12-07T00:18:32;13.00;64.80
62583;DHT22;48641;51.676;5.808;2022-12-07T00:21:06;13.00;64.80
62583;DHT22;48641;51.676;5.808;2022-12-07T00:23:33;13.00;64.70
62583;DHT22;48641;51.676;5.808;2022-12-07T00:26:06;12.90;64.80
62583;DHT22;48641;51.676;5.808;2022-12-07T00:28:32;13.00;64.80
62583;DHT22;48641;51.676;5.808;2022-12-07T00:31:08;12.90;64.70
62583;DHT22;48641;51.676;5.808;2022-12-07T00:33:35;13.00;64.70
62583;DHT22;48641;51.676;5.808;2022-12-07T00:36:02;13.00;64.70
62583;DHT22;48641;51.676;5.808;2022-12-07T00:38:30;13.00;64.70
62583;DHT22;48641;51.676;5.808;2022-12-07T00:40:57;13.00;64.70
62583;DHT22;48641;51.676;5.808;2022-12-07T00:43:23;13.00;64.80
62583;DHT22;48641;51.676;5.808;2022-12-07T00:45:49;12.90;64.60
62583;DHT22;48641;51.676;5.808;2022-12-07T00:48:14;12.90;64.60
62583;DHT22;48641;51.676;5.808;2022-12-07T00:50:40;12.90;64.70
62583;DHT22;48641;51.676;5.808;2022-12-07T00:53:05;12.90;64.70
62583;DHT22;48641;51.676;5.808;2022-12-07T00:55:37;12.90;64.70
62583;DHT22;48641;51.676;5.808;2022-12-07T00:58:03;12.90;64.60
62583;DHT22;48641;51.676;5.808;2022-12-07T01:00:29;12.90;64.60
62583;DHT22;48641;51.676;5.808;2022-12-07T01:02:55;12.90;64.70
62583;DHT22;48641;51.676;5.808;2022-12-07T01:05:20;12.90;64.60
62583;DHT22;48641;51.676;5.808;2022-12-07T01:07:46;12.90;64.60
62583;DHT22;48641;51.676;5.808;2022-12-07T01:10:12;12.90;64.60
62583;DHT22;48641;51.676;5.808;2022-12-07T01:12:38;12.90;64.60
62583;DHT22;48641;51.676;5.808;2022-12-07T01:15:04;12.90;64.60
62583;DHT22;48641;51.676;5.808;2022-12-07T01:17:30;12.90;64.60
62583;DHT22;48641;51.676;5.808;2022-12-07T01:19:56;12.90;65.60
62583;DHT22;48641;51.676;5.808;2022-12-07T01:22:22;12.90;64.60
62583;DHT22;48641;51.676;5.808;2022-12-07T01:24:48;12.90;64.50
62583;DHT22;48641;51.676;5.808;2022-12-07T01:27:13;12.90;65.60
62583;DHT22;48641;51.676;5.808;2022-12-07T01:29:39;12.90;64.60
62583;DHT22;48641;51.676;5.808;2022-12-07T01:32:05;12.90;64.60
62583;DHT22;48641;51.676;5.808;2022-12-07T01:34:31;12.90;64.60
62583;DHT22;48641;51.676;5.808;2022-12-07T01:36:56;12.90;64.60
62583;DHT22;48641;51.676;5.808;2022-12-07T01:39:22;12.90;64.60
62583;DHT22;48641;51.676;5.808;2022-12-07T01:41:48;12.90;64.60
62583;DHT22;48641;51.676;5.808;2022-12-07T01:44:23;12.80;64.50
62583;DHT22;48641;51.676;5.808;2022-12-07T01:46:56;12.90;64.50
62583;DHT22;48641;51.676;5.808;2022-12-07T01:49:41;12.80;64.50
62583;DHT22;48641;51.676;5.808;2022-12-07T01:52:34;12.80;64.50
62583;DHT22;48641;51.676;5.808;2022-12-07T01:55:04;12.90;64.50
62583;DHT22;48641;51.676;5.808;2022-12-07T01:57:34;12.80;64.60
62583;DHT22;48641;51.676;5.808;2022-12-07T02:00:01;12.80;64.60
62583;DHT22;48641;51.676;5.808;2022-12-07T02:02:30;12.80;64.60
62583;DHT22;48641;51.676;5.808;2022-12-07T02:04:59;12.80;64.60
62583;DHT22;48641;51.676;5.808;2022-12-07T02:07:26;12.80;64.60
62583;DHT22;48641;51.676;5.808;2022-12-07T02:09:53;12.80;64.60
62583;DHT22;48641;51.676;5.808;2022-12-07T02:12:20;12.80;64.60
62583;DHT22;48641;51.676;5.808;2022-12-07T02:14:46;12.80;64.60
62583;DHT22;48641;51.676;5.808;2022-12-07T02:17:28;12.80;64.60
62583;DHT22;48641;51.676;5.808;2022-12-07T02:20:33;12.80;64.60
62583;DHT22;48641;51.676;5.808;2022-12-07T02:29:19;12.70;64.60
62583;DHT22;48641;51.676;5.808;2022-12-07T02:31:54;12.70;64.70
62583;DHT22;48641;51.676;5.808;2022-12-07T02:34:39;12.70;64.70
62583;DHT22;48641;51.676;5.808;2022-12-07T02:40:17;12.70;64.70
62583;DHT22;48641;51.676;5.808;2022-12-07T02:42:48;12.70;64.70
62583;DHT22;48641;51.676;5.808;2022-12-07T02:45:18;12.70;64.70
62583;DHT22;48641;51.676;5.808;2022-12-07T02:47:48;12.70;64.70
62583;DHT22;48641;51.676;5.808;2022-12-07T02:50:14;12.70;64.70
62583;DHT22;48641;51.676;5.808;2022-12-07T02:52:40;12.70;64.70
62583;DHT22;48641;51.676;5.808;2022-12-07T02:55:06;12.70;64.70
62583;DHT22;48641;51.676;5.808;2022-12-07T03:00:19;12.70;64.70
62583;DHT22;48641;51.676;5.808;2022-12-07T03:03:05;12.70;64.60
62583;DHT22;48641;51.676;5.808;2022-12-07T03:05:46;12.70;64.60
62583;DHT22;48641;51.676;5.808;2022-12-07T03:08:33;12.70;64.60
62583;DHT22;48641;51.676;5.808;2022-12-07T03:11:12;12.70;64.60
62583;DHT22;48641;51.676;5.808;2022-12-07T03:13:45;12.60;64.60
62583;DHT22;48641;51.676;5.808;2022-12-07T03:16:20;12.60;64.70
62583;DHT22;48641;51.676;5.808;2022-12-07T03:19:21;12.60;64.60
62583;DHT22;48641;51.676;5.808;2022-12-07T03:21:57;12.60;64.50
62583;DHT22;48641;51.676;5.808;2022-12-07T03:24:43;12.60;64.70
62583;DHT22;48641;51.676;5.808;2022-12-07T03:27:13;12.60;64.70
62583;DHT22;48641;51.676;5.808;2022-12-07T03:29:48;12.60;64.70
62583;DHT22;48641;51.676;5.808;2022-12-07T03:32:25;12.60;64.70
62583;DHT22;48641;51.676;5.808;2022-12-07T03:34:58;12.60;64.70
62583;DHT22;48641;51.676;5.808;2022-12-07T03:38:08;12.60;64.70
62583;DHT22;48641;51.676;5.808;2022-12-07T03:41:01;12.60;64.60
62583;DHT22;48641;51.676;5.808;2022-12-07T03:43:29;12.60;64.80
62583;DHT22;48641;51.676;5.808;2022-12-07T03:48:37;12.60;64.80
62583;DHT22;48641;51.676;5.808;2022-12-07T03:51:16;12.50;64.70
62583;DHT22;48641;51.676;5.808;2022-12-07T03:53:48;12.60;64.70
62583;DHT22;48641;51.676;5.808;2022-12-07T03:56:15;12.60;64.70
62583;DHT22;48641;51.676;5.808;2022-12-07T03:58:41;12.50;64.70
62583;DHT22;48641;51.676;5.808;2022-12-07T04:01:07;12.60;64.70
62583;DHT22;48641;51.676;5.808;2022-12-07T04:03:33;12.60;64.70
62583;DHT22;48641;51.676;5.808;2022-12-07T04:05:59;12.60;64.70
62583;DHT22;48641;51.676;5.808;2022-12-07T04:08:25;12.60;64.70
62583;DHT22;48641;51.676;5.808;2022-12-07T04:10:50;12.60;64.70
62583;DHT22;48641;51.676;5.808;2022-12-07T04:13:16;12.50;64.70
62583;DHT22;48641;51.676;5.808;2022-12-07T04:15:42;12.50;64.60
62583;DHT22;48641;51.676;5.808;2022-12-07T04:18:07;12.50;64.60
62583;DHT22;48641;51.676;5.808;2022-12-07T04:20:33;12.50;64.70
62583;DHT22;48641;51.676;5.808;2022-12-07T04:22:58;12.40;64.70
62583;DHT22;48641;51.676;5.808;2022-12-07T04:25:24;12.40;64.90
62583;DHT22;48641;51.676;5.808;2022-12-07T04:27:50;12.50;65.00
62583;DHT22;48641;51.676;5.808;2022-12-07T04:30:15;12.40;65.00
62583;DHT22;48641;51.676;5.808;2022-12-07T04:32:41;12.50;65.10
62583;DHT22;48641;51.676;5.808;2022-12-07T04:35:07;12.40;66.00
62583;DHT22;48641;51.676;5.808;2022-12-07T04:37:32;12.40;65.10
62583;DHT22;48641;51.676;5.808;2022-12-07T04:39:58;12.40;65.20
62583;DHT22;48641;51.676;5.808;2022-12-07T04:42:23;12.40;65.20
62583;DHT22;48641;51.676;5.808;2022-12-07T04:44:49;12.40;65.20
62583;DHT22;48641;51.676;5.808;2022-12-07T04:47:16;12.40;65.20
62583;DHT22;48641;51.676;5.808;2022-12-07T04:49:41;12.50;65.40
62583;DHT22;48641;51.676;5.808;2022-12-07T04:52:07;12.50;65.40
62583;DHT22;48641;51.676;5.808;2022-12-07T04:54:32;12.40;65.30
62583;DHT22;48641;51.676;5.808;2022-12-07T04:56:58;12.40;65.30
62583;DHT22;48641;51.676;5.808;2022-12-07T04:59:24;12.50;65.40
62583;DHT22;48641;51.676;5.808;2022-12-07T05:01:53;12.40;65.40
62583;DHT22;48641;51.676;5.808;2022-12-07T05:04:18;12.50;65.50
62583;DHT22;48641;51.676;5.808;2022-12-07T05:06:44;12.50;65.50
62583;DHT22;48641;51.676;5.808;2022-12-07T05:09:09;12.50;65.50
62583;DHT22;48641;51.676;5.808;2022-12-07T05:11:35;12.50;65.50
62583;DHT22;48641;51.676;5.808;2022-12-07T05:14:14;12.50;65.50
62583;DHT22;48641;51.676;5.808;2022-12-07T05:16:40;12.60;65.50
62583;DHT22;48641;51.676;5.808;2022-12-07T05:19:07;12.50;65.50
62583;DHT22;48641;51.676;5.808;2022-12-07T05:21:33;12.60;65.50
62583;DHT22;48641;51.676;5.808;2022-12-07T05:23:58;12.60;65.40
62583;DHT22;48641;51.676;5.808;2022-12-07T05:26:24;12.60;65.40
62583;DHT22;48641;51.676;5.808;2022-12-07T05:28:54;12.60;65.40
62583;DHT22;48641;51.676;5.808;2022-12-07T05:31:21;12.60;65.40
62583;DHT22;48641;51.676;5.808;2022-12-07T05:33:47;12.60;65.40
62583;DHT22;48641;51.676;5.808;2022-12-07T05:36:13;12.60;65.40
62583;DHT22;48641;51.676;5.808;2022-12-07T05:38:38;12.60;65.30
62583;DHT22;48641;51.676;5.808;2022-12-07T05:41:05;12.70;65.40
62583;DHT22;48641;51.676;5.808;2022-12-07T05:43:31;12.70;65.30
62583;DHT22;48641;51.676;5.808;2022-12-07T05:45:58;12.70;65.20
62583;DHT22;48641;51.676;5.808;2022-12-07T05:48:24;12.70;65.20
62583;DHT22;48641;51.676;5.808;2022-12-07T05:50:50;12.70;65.20
62583;DHT22;48641;51.676;5.808;2022-12-07T05:53:16;12.70;65.20
62583;DHT22;48641;51.676;5.808;2022-12-07T05:55:43;12.70;65.20
62583;DHT22;48641;51.676;5.808;2022-12-07T05:58:08;12.70;65.10
62583;DHT22;48641;51.676;5.808;2022-12-07T06:00:55;12.70;65.10
62583;DHT22;48641;51.676;5.808;2022-12-07T06:03:20;12.70;65.20
62583;DHT22;48641;51.676;5.808;2022-12-07T06:05:46;12.70;65.10
62583;DHT22;48641;51.676;5.808;2022-12-07T06:08:12;12.70;65.00
62583;DHT22;48641;51.676;5.808;2022-12-07T06:10:37;12.70;65.10
62583;DHT22;48641;51.676;5.808;2022-12-07T06:13:03;12.70;65.10
62583;DHT22;48641;51.676;5.808;2022-12-07T06:15:28;12.70;65.10
62583;DHT22;48641;51.676;5.808;2022-12-07T06:17:54;12.70;65.10
62583;DHT22;48641;51.676;5.808;2022-12-07T06:20:19;12.70;65.00
62583;DHT22;48641;51.676;5.808;2022-12-07T06:22:45;12.70;65.00
62583;DHT22;48641;51.676;5.808;2022-12-07T06:25:10;12.70;65.20
62583;DHT22;48641;51.676;5.808;2022-12-07T06:27:36;12.70;66.10
62583;DHT22;48641;51.676;5.808;2022-12-07T06:30:03;12.70;65.10
62583;DHT22;48641;51.676;5.808;2022-12-07T06:32:32;12.70;65.20
62583;DHT22;48641;51.676;5.808;2022-12-07T06:34:59;12.70;65.20
62583;DHT22;48641;51.676;5.808;2022-12-07T06:37:24;12.70;65.20
62583;DHT22;48641;51.676;5.808;2022-12-07T06:39:50;12.70;66.20
62583;DHT22;48641;51.676;5.808;2022-12-07T06:42:15;12.80;65.30
62583;DHT22;48641;51.676;5.808;2022-12-07T06:44:41;12.70;65.20
62583;DHT22;48641;51.676;5.808;2022-12-07T06:47:07;12.80;65.30
62583;DHT22;48641;51.676;5.808;2022-12-07T06:49:33;12.70;65.20
62583;DHT22;48641;51.676;5.808;2022-12-07T06:51:59;12.80;65.30
62583;DHT22;48641;51.676;5.808;2022-12-07T06:54:25;12.70;65.20
62583;DHT22;48641;51.676;5.808;2022-12-07T06:56:50;12.70;65.10
62583;DHT22;48641;51.676;5.808;2022-12-07T06:59:16;12.70;65.20
62583;DHT22;48641;51.676;5.808;2022-12-07T07:01:41;12.70;65.10
62583;DHT22;48641;51.676;5.808;2022-12-07T07:04:07;12.70;65.00
62583;DHT22;48641;51.676;5.808;2022-12-07T07:06:33;12.70;65.00
62583;DHT22;48641;51.676;5.808;2022-12-07T07:08:58;12.70;65.00
62583;DHT22;48641;51.676;5.808;2022-12-07T07:11:24;12.70;65.00
62583;DHT22;48641;51.676;5.808;2022-12-07T07:13:50;12.70;65.00
62583;DHT22;48641;51.676;5.808;2022-12-07T07:16:15;12.70;65.00
62583;DHT22;48641;51.676;5.808;2022-12-07T07:18:41;12.70;65.00
62583;DHT22;48641;51.676;5.808;2022-12-07T07:21:06;12.70;65.00
62583;DHT22;48641;51.676;5.808;2022-12-07T07:23:32;12.70;65.00
62583;DHT22;48641;51.676;5.808;2022-12-07T07:25:58;12.60;65.00
62583;DHT22;48641;51.676;5.808;2022-12-07T07:28:23;12.60;65.00
62583;DHT22;48641;51.676;5.808;2022-12-07T07:30:49;12.60;65.00
62583;DHT22;48641;51.676;5.808;2022-12-07T07:33:14;12.60;65.00
62583;DHT22;48641;51.676;5.808;2022-12-07T07:35:40;12.60;65.00
62583;DHT22;48641;51.676;5.808;2022-12-07T07:38:07;12.60;65.10
62583;DHT22;48641;51.676;5.808;2022-12-07T07:40:33;12.60;65.10
62583;DHT22;48641;51.676;5.808;2022-12-07T07:42:58;12.50;65.10
62583;DHT22;48641;51.676;5.808;2022-12-07T07:45:26;12.50;65.10
62583;DHT22;48641;51.676;5.808;2022-12-07T07:47:52;12.50;65.10
62583;DHT22;48641;51.676;5.808;2022-12-07T07:50:17;12.50;65.10
62583;DHT22;48641;51.676;5.808;2022-12-07T07:52:44;12.50;65.10
62583;DHT22;48641;51.676;5.808;2022-12-07T07:55:10;12.50;65.20
62583;DHT22;48641;51.676;5.808;2022-12-07T07:57:37;12.50;65.10
62583;DHT22;48641;51.676;5.808;2022-12-07T08:00:11;12.50;65.20
62583;DHT22;48641;51.676;5.808;2022-12-07T08:02:37;12.50;65.10
62583;DHT22;48641;51.676;5.808;2022-12-07T08:05:03;12.50;65.20
62583;DHT22;48641;51.676;5.808;2022-12-07T08:07:29;12.50;65.30
62583;DHT22;48641;51.676;5.808;2022-12-07T08:09:55;12.40;65.20
62583;DHT22;48641;51.676;5.808;2022-12-07T08:12:20;12.40;66.00
62583;DHT22;48641;51.676;5.808;2022-12-07T08:14:46;12.50;66.60
62583;DHT22;48641;51.676;5.808;2022-12-07T08:17:12;12.50;66.20
62583;DHT22;48641;51.676;5.808;2022-12-07T08:19:37;12.40;66.00
62583;DHT22;48641;51.676;5.808;2022-12-07T08:22:03;12.40;65.80
62583;DHT22;48641;51.676;5.808;2022-12-07T08:24:29;12.50;65.90
62583;DHT22;48641;51.676;5.808;2022-12-07T08:26:54;12.40;65.70
62583;DHT22;48641;51.676;5.808;2022-12-07T08:29:20;12.40;65.70
62583;DHT22;48641;51.676;5.808;2022-12-07T08:31:46;12.40;65.60
62583;DHT22;48641;51.676;5.808;2022-12-07T08:34:12;12.40;65.70
62583;DHT22;48641;51.676;5.808;2022-12-07T08:36:38;12.40;65.60
62583;DHT22;48641;51.676;5.808;2022-12-07T08:39:04;12.40;65.60
62583;DHT22;48641;51.676;5.808;2022-12-07T08:41:29;12.40;65.60
62583;DHT22;48641;51.676;5.808;2022-12-07T08:43:55;12.40;65.60
62583;DHT22;48641;51.676;5.808;2022-12-07T08:49:13;12.40;65.60
62583;DHT22;48641;51.676;5.808;2022-12-07T08:51:40;12.40;65.60
62583;DHT22;48641;51.676;5.808;2022-12-07T08:54:09;12.30;65.60
62583;DHT22;48641;51.676;5.808;2022-12-07T08:56:36;12.40;65.60
62583;DHT22;48641;51.676;5.808;2022-12-07T08:59:02;12.30;65.60
62583;DHT22;48641;51.676;5.808;2022-12-07T09:01:28;12.30;65.60
62583;DHT22;48641;51.676;5.808;2022-12-07T09:03:54;12.30;65.50
62583;DHT22;48641;51.676;5.808;2022-12-07T09:06:20;12.30;65.60
62583;DHT22;48641;51.676;5.808;2022-12-07T09:08:47;12.30;65.60
62583;DHT22;48641;51.676;5.808;2022-12-07T09:11:15;12.30;65.60
62583;DHT22;48641;51.676;5.808;2022-12-07T09:13:41;12.30;65.60
62583;DHT22;48641;51.676;5.808;2022-12-07T09:16:06;12.30;65.60
62583;DHT22;48641;51.676;5.808;2022-12-07T09:18:32;12.30;65.60
62583;DHT22;48641;51.676;5.808;2022-12-07T09:20:58;12.30;65.60
62583;DHT22;48641;51.676;5.808;2022-12-07T09:23:23;12.30;65.60
62583;DHT22;48641;51.676;5.808;2022-12-07T09:25:49;12.30;65.70
62583;DHT22;48641;51.676;5.808;2022-12-07T09:28:14;12.30;65.60
62583;DHT22;48641;51.676;5.808;2022-12-07T09:30:46;12.30;65.60
62583;DHT22;48641;51.676;5.808;2022-12-07T09:33:12;12.30;65.60
62583;DHT22;48641;51.676;5.808;2022-12-07T09:35:37;12.30;65.60
62583;DHT22;48641;51.676;5.808;2022-12-07T09:38:03;12.30;65.60
62583;DHT22;48641;51.676;5.808;2022-12-07T09:40:29;12.30;65.60
62583;DHT22;48641;51.676;5.808;2022-12-07T09:42:55;12.30;65.60
62583;DHT22;48641;51.676;5.808;2022-12-07T09:45:24;12.30;65.60
62583;DHT22;48641;51.676;5.808;2022-12-07T09:47:51;12.30;65.60
62583;DHT22;48641;51.676;5.808;2022-12-07T09:50:21;12.30;65.50
62583;DHT22;48641;51.676;5.808;2022-12-07T09:52:48;12.30;65.60
62583;DHT22;48641;51.676;5.808;2022-12-07T09:55:21;12.30;65.80
62583;DHT22;48641;51.676;5.808;2022-12-07T09:57:48;12.30;65.70
62583;DHT22;48641;51.676;5.808;2022-12-07T10:00:19;12.30;65.60
62583;DHT22;48641;51.676;5.808;2022-12-07T10:02:59;12.30;65.60
62583;DHT22;48641;51.676;5.808;2022-12-07T10:05:32;12.30;65.60
62583;DHT22;48641;51.676;5.808;2022-12-07T10:08:00;12.40;65.60
62583;DHT22;48641;51.676;5.808;2022-12-07T10:10:29;12.30;65.60
62583;DHT22;48641;51.676;5.808;2022-12-07T10:13:05;12.30;65.60
62583;DHT22;48641;51.676;5.808;2022-12-07T10:15:54;12.30;65.70
62583;DHT22;48641;51.676;5.808;2022-12-07T10:18:36;12.40;65.70
62583;DHT22;48641;51.676;5.808;2022-12-07T10:23:36;12.40;65.80
62583;DHT22;48641;51.676;5.808;2022-12-07T10:26:31;12.40;66.30
62583;DHT22;48641;51.676;5.808;2022-12-07T10:29:15;12.40;66.00
62583;DHT22;48641;51.676;5.808;2022-12-07T10:31:42;12.50;66.10
62583;DHT22;48641;51.676;5.808;2022-12-07T10:34:32;12.50;66.10
62583;DHT22;48641;51.676;5.808;2022-12-07T10:39:52;12.50;66.10
62583;DHT22;48641;51.676;5.808;2022-12-07T10:42:29;12.50;66.10
62583;DHT22;48641;51.676;5.808;2022-12-07T10:45:16;12.50;66.10
62583;DHT22;48641;51.676;5.808;2022-12-07T10:48:08;12.50;66.90
62583;DHT22;48641;51.676;5.808;2022-12-07T10:50:58;12.50;66.00
62583;DHT22;48641;51.676;5.808;2022-12-07T11:15:04;12.60;65.90
62583;DHT22;48641;51.676;5.808;2022-12-07T11:23:02;12.50;65.90
62583;DHT22;48641;51.676;5.808;2022-12-07T11:33:57;12.50;65.90
62583;DHT22;48641;51.676;5.808;2022-12-07T11:38:57;12.50;65.90
62583;DHT22;48641;51.676;5.808;2022-12-07T11:41:29;12.50;65.90
62583;DHT22;48641;51.676;5.808;2022-12-07T11:44:06;12.50;65.90
62583;DHT22;48641;51.676;5.808;2022-12-07T11:46:44;12.50;65.80
62583;DHT22;48641;51.676;5.808;2022-12-07T11:49:27;12.50;65.90
62583;DHT22;48641;51.676;5.808;2022-12-07T11:51:59;12.50;65.90
62583;DHT22;48641;51.676;5.808;2022-12-07T11:54:32;12.50;65.90
62583;DHT22;48641;51.676;5.808;2022-12-07T11:57:04;12.50;66.00
62583;DHT22;48641;51.676;5.808;2022-12-07T11:59:38;12.50;66.00
62583;DHT22;48641;51.676;5.808;2022-12-07T12:02:14;12.50;66.00
62583;DHT22;48641;51.676;5.808;2022-12-07T12:04:55;12.50;66.10
62583;DHT22;48641;51.676;5.808;2022-12-07T12:07:26;12.60;66.00
62583;DHT22;48641;51.676;5.808;2022-12-07T12:18:51;12.50;67.00
62583;DHT22;48641;51.676;5.808;2022-12-07T12:21:27;12.50;66.10
62583;DHT22;48641;51.676;5.808;2022-12-07T12:24:14;12.50;66.10
62583;DHT22;48641;51.676;5.808;2022-12-07T12:26:49;12.50;66.10
62583;DHT22;48641;51.676;5.808;2022-12-07T12:29:27;12.50;66.20
62583;DHT22;48641;51.676;5.808;2022-12-07T12:42:51;12.50;66.10
62583;DHT22;48641;51.676;5.808;2022-12-07T12:45:23;12.50;66.10
62583;DHT22;48641;51.676;5.808;2022-12-07T12:48:02;12.50;66.10
62583;DHT22;48641;51.676;5.808;2022-12-07T12:50:36;12.40;66.10
62583;DHT22;48641;51.676;5.808;2022-12-07T12:53:21;12.40;66.10
62583;DHT22;48641;51.676;5.808;2022-12-07T13:03:54;12.50;66.10
62583;DHT22;48641;51.676;5.808;2022-12-07T13:08:58;12.50;66.30
62583;DHT22;48641;51.676;5.808;2022-12-07T13:11:40;12.50;67.20
62583;DHT22;48641;51.676;5.808;2022-12-07T13:25:09;12.50;66.30
62583;DHT22;48641;51.676;5.808;2022-12-07T13:27:40;12.40;66.20
62583;DHT22;48641;51.676;5.808;2022-12-07T13:30:25;12.50;66.20
62583;DHT22;48641;51.676;5.808;2022-12-07T13:32:56;12.50;66.10
62583;DHT22;48641;51.676;5.808;2022-12-07T13:35:34;12.50;66.20
62583;DHT22;48641;51.676;5.808;2022-12-07T13:38:04;12.50;66.20
62583;DHT22;48641;51.676;5.808;2022-12-07T13:40:30;12.50;66.20
62583;DHT22;48641;51.676;5.808;2022-12-07T13:43:02;12.50;66.10
62583;DHT22;48641;51.676;5.808;2022-12-07T13:45:33;12.60;66.20
62583;DHT22;48641;51.676;5.808;2022-12-07T13:48:35;12.60;66.20
62583;DHT22;48641;51.676;5.808;2022-12-07T13:51:03;12.60;66.00
62583;DHT22;48641;51.676;5.808;2022-12-07T13:53:29;12.50;66.10
62583;DHT22;48641;51.676;5.808;2022-12-07T13:55:59;12.60;66.10
62583;DHT22;48641;51.676;5.808;2022-12-07T13:58:30;12.60;66.00
62583;DHT22;48641;51.676;5.808;2022-12-07T14:00:56;12.50;66.00
62583;DHT22;48641;51.676;5.808;2022-12-07T14:03:33;12.60;66.00
62583;DHT22;48641;51.676;5.808;2022-12-07T14:06:13;12.60;66.00
62583;DHT22;48641;51.676;5.808;2022-12-07T14:08:39;12.60;66.00
62583;DHT22;48641;51.676;5.808;2022-12-07T14:11:07;12.60;66.00
62583;DHT22;48641;51.676;5.808;2022-12-07T14:13:36;12.60;65.90
62583;DHT22;48641;51.676;5.808;2022-12-07T14:18:50;12.60;65.80
62583;DHT22;48641;51.676;5.808;2022-12-07T14:21:18;12.60;65.90
62583;DHT22;48641;51.676;5.808;2022-12-07T14:23:45;12.60;65.90
62583;DHT22;48641;51.676;5.808;2022-12-07T14:26:15;12.60;65.90
62583;DHT22;48641;51.676;5.808;2022-12-07T14:28:44;12.60;65.90
62583;DHT22;48641;51.676;5.808;2022-12-07T14:31:24;12.60;65.90
62583;DHT22;48641;51.676;5.808;2022-12-07T14:33:50;12.60;65.80
62583;DHT22;48641;51.676;5.808;2022-12-07T14:36:15;12.60;65.90
62583;DHT22;48641;51.676;5.808;2022-12-07T14:38:41;12.60;65.90
62583;DHT22;48641;51.676;5.808;2022-12-07T14:41:16;12.60;65.90
62583;DHT22;48641;51.676;5.808;2022-12-07T14:44:04;12.60;65.80
62583;DHT22;48641;51.676;5.808;2022-12-07T14:46:33;12.60;66.00
62583;DHT22;48641;51.676;5.808;2022-12-07T14:48:59;12.60;66.00
62583;DHT22;48641;51.676;5.808;2022-12-07T14:51:24;12.60;65.90
62583;DHT22;48641;51.676;5.808;2022-12-07T14:53:51;12.60;65.90
62583;DHT22;48641;51.676;5.808;2022-12-07T14:56:17;12.60;65.90
62583;DHT22;48641;51.676;5.808;2022-12-07T14:58:42;12.60;65.90
62583;DHT22;48641;51.676;5.808;2022-12-07T15:01:08;12.60;65.80
62583;DHT22;48641;51.676;5.808;2022-12-07T15:03:34;12.60;65.80
62583;DHT22;48641;51.676;5.808;2022-12-07T15:06:00;12.60;65.80
62583;DHT22;48641;51.676;5.808;2022-12-07T15:08:26;12.60;65.80
62583;DHT22;48641;51.676;5.808;2022-12-07T15:10:52;12.60;65.80
62583;DHT22;48641;51.676;5.808;2022-12-07T15:13:18;12.60;65.80
62583;DHT22;48641;51.676;5.808;2022-12-07T15:16:02;12.60;65.80
62583;DHT22;48641;51.676;5.808;2022-12-07T15:18:28;12.60;65.80
62583;DHT22;48641;51.676;5.808;2022-12-07T15:20:53;12.60;65.80
62583;DHT22;48641;51.676;5.808;2022-12-07T15:23:19;12.60;65.80
62583;DHT22;48641;51.676;5.808;2022-12-07T15:25:47;12.60;65.80
62583;DHT22;48641;51.676;5.808;2022-12-07T15:28:13;12.60;65.70
62583;DHT22;48641;51.676;5.808;2022-12-07T15:30:40;12.60;65.70
62583;DHT22;48641;51.676;5.808;2022-12-07T15:33:08;12.60;65.70
62583;DHT22;48641;51.676;5.808;2022-12-07T15:35:44;12.60;65.70
62583;DHT22;48641;51.676;5.808;2022-12-07T15:38:10;12.60;65.70
62583;DHT22;48641;51.676;5.808;2022-12-07T15:40:36;12.60;65.70
62583;DHT22;48641;51.676;5.808;2022-12-07T15:43:02;12.60;65.60
62583;DHT22;48641;51.676;5.808;2022-12-07T15:45:28;12.60;65.60
62583;DHT22;48641;51.676;5.808;2022-12-07T15:47:53;12.60;65.60
62583;DHT22;48641;51.676;5.808;2022-12-07T15:50:21;12.60;65.70
62583;DHT22;48641;51.676;5.808;2022-12-07T15:52:47;12.60;65.60
62583;DHT22;48641;51.676;5.808;2022-12-07T15:55:12;12.60;65.60
62583;DHT22;48641;51.676;5.808;2022-12-07T15:57:38;12.60;65.60
62583;DHT22;48641;51.676;5.808;2022-12-07T16:00:06;12.60;65.60
62583;DHT22;48641;51.676;5.808;2022-12-07T16:02:32;12.60;65.60
62583;DHT22;48641;51.676;5.808;2022-12-07T16:04:58;12.60;65.60
62583;DHT22;48641;51.676;5.808;2022-12-07T16:07:23;12.50;65.50
62583;DHT22;48641;51.676;5.808;2022-12-07T16:09:49;12.60;65.60
62583;DHT22;48641;51.676;5.808;2022-12-07T16:12:15;12.50;65.60
62583;DHT22;48641;51.676;5.808;2022-12-07T16:14:41;12.50;65.60
62583;DHT22;48641;51.676;5.808;2022-12-07T16:17:08;12.50;65.60
62583;DHT22;48641;51.676;5.808;2022-12-07T16:19:35;12.60;65.60
62583;DHT22;48641;51.676;5.808;2022-12-07T16:22:01;12.60;65.60
62583;DHT22;48641;51.676;5.808;2022-12-07T16:24:27;12.50;65.50
62583;DHT22;48641;51.676;5.808;2022-12-07T16:26:53;12.60;65.50
62583;DHT22;48641;51.676;5.808;2022-12-07T16:29:20;12.60;65.60
62583;DHT22;48641;51.676;5.808;2022-12-07T16:31:46;12.60;66.30
62583;DHT22;48641;51.676;5.808;2022-12-07T16:34:12;12.60;66.30
62583;DHT22;48641;51.676;5.808;2022-12-07T16:36:37;12.60;66.10
62583;DHT22;48641;51.676;5.808;2022-12-07T16:39:03;12.60;66.00
62583;DHT22;48641;51.676;5.808;2022-12-07T16:41:30;12.60;65.90
62583;DHT22;48641;51.676;5.808;2022-12-07T16:43:55;12.50;65.80
62583;DHT22;48641;51.676;5.808;2022-12-07T16:46:21;12.50;65.80
62583;DHT22;48641;51.676;5.808;2022-12-07T16:48:47;12.60;65.80
62583;DHT22;48641;51.676;5.808;2022-12-07T16:51:13;12.60;65.70
62583;DHT22;48641;51.676;5.808;2022-12-07T16:53:41;12.50;65.70
62583;DHT22;48641;51.676;5.808;2022-12-07T16:56:14;12.60;65.70
62583;DHT22;48641;51.676;5.808;2022-12-07T16:58:43;12.60;65.70
62583;DHT22;48641;51.676;5.808;2022-12-07T17:01:15;12.50;65.70
62583;DHT22;48641;51.676;5.808;2022-12-07T17:03:40;12.50;65.70
62583;DHT22;48641;51.676;5.808;2022-12-07T17:06:21;12.50;65.70
62583;DHT22;48641;51.676;5.808;2022-12-07T17:08:47;12.50;66.60
62583;DHT22;48641;51.676;5.808;2022-12-07T17:11:21;12.50;65.70
62583;DHT22;48641;51.676;5.808;2022-12-07T17:13:47;12.50;65.70
62583;DHT22;48641;51.676;5.808;2022-12-07T17:16:31;12.50;65.70
62583;DHT22;48641;51.676;5.808;2022-12-07T17:18:57;12.50;65.70
62583;DHT22;48641;51.676;5.808;2022-12-07T17:21:23;12.50;65.70
62583;DHT22;48641;51.676;5.808;2022-12-07T17:23:49;12.50;65.70
62583;DHT22;48641;51.676;5.808;2022-12-07T17:26:18;12.50;65.60
62583;DHT22;48641;51.676;5.808;2022-12-07T17:28:44;12.50;65.60